BOX553 EDDP-ESSA
Flight info
| Callsign | BOX553 |
|---|---|
| Flight time | N/A |
| Altitude | 31000 |
| Route | PENEM1S PENEM Z131 PENEK DCT DETNI DCT VIBAR/N0434F270 Z227 NILUG |
| Aircraft | B77L/H-SDE1E2E3FGHIJ2J3J4J5M1RWXY/LB1D1 |
Departure
| Time | 2026-05-04 14:39 |
|---|---|
| Airport | Leipzig/Halle Airport (EDDP) |
Arrival
| Time | N/A |
|---|---|
| Airport | Stockholm-Arlanda Airport (ESSA) |
| Time | Latitude | Longitude | Altitude | Speed | Heading |
|---|---|---|---|---|---|
| 2026-05-04 14:22 | 51.40843 | 12.24530 | 469 ft | 0 kts | 266° |
| 2026-05-04 14:23 | 51.40843 | 12.24534 | 467 ft | 0 kts | 266° |
| 2026-05-04 14:27 | 51.40844 | 12.24556 | 464 ft | 3 kts | 275° |
| 2026-05-04 14:27 | 51.40838 | 12.24586 | 463 ft | 3 kts | 320° |
| 2026-05-04 14:28 | 51.40824 | 12.24599 | 461 ft | 0 kts | 356° |
| 2026-05-04 14:32 | 51.40842 | 12.24607 | 464 ft | 2 kts | 24° |
| 2026-05-04 14:32 | 51.40856 | 12.24618 | 467 ft | 2 kts | 26° |
| 2026-05-04 14:32 | 51.40870 | 12.24630 | 469 ft | 2 kts | 28° |
| 2026-05-04 14:32 | 51.40883 | 12.24642 | 468 ft | 2 kts | 30° |
| 2026-05-04 14:33 | 51.40904 | 12.24657 | 470 ft | 4 kts | 18° |
| 2026-05-04 14:33 | 51.40940 | 12.24661 | 469 ft | 6 kts | 359° |
| 2026-05-04 14:33 | 51.40985 | 12.24656 | 468 ft | 6 kts | 355° |
| 2026-05-04 14:33 | 51.41030 | 12.24651 | 468 ft | 6 kts | 355° |
| 2026-05-04 14:34 | 51.41076 | 12.24654 | 473 ft | 7 kts | 20° |
| 2026-05-04 14:34 | 51.41101 | 12.24720 | 468 ft | 7 kts | 80° |
| 2026-05-04 14:34 | 51.41105 | 12.24824 | 474 ft | 13 kts | 86° |
| 2026-05-04 14:34 | 51.41112 | 12.24979 | 479 ft | 14 kts | 85° |
| 2026-05-04 14:35 | 51.41120 | 12.25135 | 474 ft | 14 kts | 85° |
| 2026-05-04 14:35 | 51.41127 | 12.25292 | 481 ft | 14 kts | 86° |
| 2026-05-04 14:35 | 51.41134 | 12.25435 | 475 ft | 12 kts | 85° |
| 2026-05-04 14:35 | 51.41139 | 12.25549 | 479 ft | 7 kts | 84° |
| 2026-05-04 14:36 | 51.41174 | 12.25619 | 471 ft | 9 kts | 20° |
| 2026-05-04 14:36 | 51.41227 | 12.25624 | 472 ft | 6 kts | 354° |
| 2026-05-04 14:36 | 51.41268 | 12.25617 | 475 ft | 6 kts | 354° |
| 2026-05-04 14:36 | 51.41312 | 12.25610 | 475 ft | 7 kts | 354° |
| 2026-05-04 14:37 | 51.41364 | 12.25602 | 474 ft | 3 kts | 354° |
| 2026-05-04 14:37 | 51.41389 | 12.25589 | 470 ft | 5 kts | 324° |
| 2026-05-04 14:37 | 51.41399 | 12.25534 | 477 ft | 4 kts | 268° |
| 2026-05-04 14:37 | 51.41398 | 12.25520 | 473 ft | 0 kts | 264° |
| 2026-05-04 14:38 | 51.41394 | 12.25447 | 475 ft | 29 kts | 265° |
| 2026-05-04 14:38 | 51.41355 | 12.24612 | 475 ft | 118 kts | 265° |
| 2026-05-04 14:39 | 51.41276 | 12.22923 | 549 ft | 175 kts | 265° |
| 2026-05-04 14:39 | 51.41182 | 12.20992 | 1437 ft | 172 kts | 265° |
| 2026-05-04 14:39 | 51.41083 | 12.19048 | 2353 ft | 177 kts | 265° |
| 2026-05-04 14:40 | 51.40803 | 12.14521 | 3252 ft | 236 kts | 265° |
| 2026-05-04 14:40 | 51.41052 | 12.11821 | 3750 ft | 258 kts | 295° |
| 2026-05-04 14:40 | 51.42195 | 12.09607 | 4876 ft | 262 kts | 322° |
| 2026-05-04 14:40 | 51.43833 | 12.08346 | 5944 ft | 269 kts | 344° |
| 2026-05-04 14:41 | 51.45724 | 12.08106 | 6880 ft | 277 kts | 359° |
| 2026-05-04 14:41 | 51.47685 | 12.08155 | 7771 ft | 285 kts | 358° |
| 2026-05-04 14:41 | 51.51704 | 12.08200 | 9864 ft | 293 kts | 357° |
| 2026-05-04 14:42 | 51.56007 | 12.08274 | 10970 ft | 338 kts | 359° |
| 2026-05-04 14:42 | 51.58470 | 12.08361 | 11249 ft | 369 kts | 359° |
| 2026-05-04 14:42 | 51.61093 | 12.08462 | 12100 ft | 382 kts | 359° |
| 2026-05-04 14:43 | 51.63745 | 12.08560 | 13223 ft | 389 kts | 359° |
| 2026-05-04 14:43 | 51.66468 | 12.08653 | 14351 ft | 394 kts | 359° |
| 2026-05-04 14:43 | 51.69228 | 12.08754 | 15390 ft | 397 kts | 0° |
| 2026-05-04 14:43 | 51.71983 | 12.09562 | 16112 ft | 413 kts | 19° |
| 2026-05-04 14:44 | 51.74526 | 12.11793 | 16883 ft | 422 kts | 31° |
| 2026-05-04 14:44 | 51.77061 | 12.14285 | 17717 ft | 431 kts | 28° |
| 2026-05-04 14:44 | 51.79686 | 12.16693 | 18684 ft | 435 kts | 27° |
| 2026-05-04 14:44 | 51.82373 | 12.19001 | 19596 ft | 439 kts | 25° |
| 2026-05-04 14:45 | 51.85133 | 12.21171 | 20457 ft | 444 kts | 24° |
| 2026-05-04 14:45 | 51.87936 | 12.23350 | 21287 ft | 450 kts | 24° |
| 2026-05-04 14:45 | 51.90778 | 12.25577 | 22092 ft | 457 kts | 23° |
| 2026-05-04 14:45 | 51.93662 | 12.27861 | 22915 ft | 464 kts | 24° |
| 2026-05-04 14:46 | 51.96570 | 12.30183 | 23708 ft | 469 kts | 24° |
| 2026-05-04 14:46 | 51.99495 | 12.32530 | 24504 ft | 471 kts | 24° |
| 2026-05-04 14:46 | 52.02444 | 12.34902 | 25210 ft | 475 kts | 23° |
| 2026-05-04 14:46 | 52.05428 | 12.37302 | 25825 ft | 482 kts | 23° |
| 2026-05-04 14:47 | 52.08450 | 12.39734 | 26449 ft | 488 kts | 23° |
| 2026-05-04 14:47 | 52.11508 | 12.42184 | 27100 ft | 493 kts | 22° |
| 2026-05-04 14:47 | 52.14566 | 12.44619 | 27747 ft | 497 kts | 22° |
| 2026-05-04 14:47 | 52.17689 | 12.47104 | 28375 ft | 502 kts | 22° |
| 2026-05-04 14:48 | 52.20844 | 12.49618 | 28972 ft | 507 kts | 22° |
| 2026-05-04 14:48 | 52.24031 | 12.52165 | 29533 ft | 512 kts | 22° |
| 2026-05-04 14:48 | 52.27245 | 12.54742 | 30068 ft | 516 kts | 22° |
| 2026-05-04 14:48 | 52.30479 | 12.57344 | 30677 ft | 516 kts | 22° |
| 2026-05-04 14:49 | 52.33705 | 12.59943 | 31007 ft | 517 kts | 22° |
| 2026-05-04 14:49 | 52.36931 | 12.62544 | 30951 ft | 515 kts | 22° |
| 2026-05-04 14:49 | 52.43433 | 12.67297 | 30958 ft | 509 kts | 17° |
| 2026-05-04 14:50 | 52.50027 | 12.71426 | 30968 ft | 511 kts | 16° |
| 2026-05-04 14:50 | 52.56697 | 12.75563 | 30980 ft | 512 kts | 16° |
| 2026-05-04 14:51 | 52.63365 | 12.79774 | 30965 ft | 513 kts | 16° |
| 2026-05-04 14:51 | 52.70026 | 12.84034 | 30955 ft | 513 kts | 17° |
| 2026-05-04 14:52 | 52.76681 | 12.88313 | 30969 ft | 512 kts | 17° |
| 2026-05-04 14:52 | 52.83291 | 12.92574 | 30951 ft | 512 kts | 17° |
| 2026-05-04 14:53 | 52.89920 | 12.96857 | 30963 ft | 511 kts | 17° |
| 2026-05-04 14:53 | 52.96547 | 13.01152 | 30962 ft | 510 kts | 17° |
| 2026-05-04 14:54 | 53.03170 | 13.05458 | 30998 ft | 512 kts | 16° |
| 2026-05-04 14:54 | 53.09821 | 13.09796 | 30965 ft | 513 kts | 16° |
| 2026-05-04 14:55 | 53.16429 | 13.14122 | 30951 ft | 513 kts | 16° |
| 2026-05-04 14:55 | 53.23084 | 13.18495 | 30958 ft | 513 kts | 16° |
| 2026-05-04 14:56 | 53.29734 | 13.22877 | 30968 ft | 514 kts | 16° |
| 2026-05-04 14:56 | 53.36397 | 13.27283 | 30954 ft | 515 kts | 16° |
| 2026-05-04 14:57 | 53.43021 | 13.31678 | 30950 ft | 515 kts | 16° |
| 2026-05-04 14:57 | 53.49674 | 13.36107 | 30946 ft | 514 kts | 16° |
| 2026-05-04 14:58 | 53.56338 | 13.40559 | 30943 ft | 515 kts | 16° |
| 2026-05-04 14:58 | 53.63009 | 13.45029 | 30945 ft | 515 kts | 16° |
| 2026-05-04 14:59 | 53.69670 | 13.49510 | 30944 ft | 515 kts | 16° |
| 2026-05-04 15:00 | 53.79680 | 13.56272 | 30948 ft | 516 kts | 16° |
| 2026-05-04 15:00 | 53.86302 | 13.60764 | 30945 ft | 515 kts | 16° |
| 2026-05-04 15:01 | 53.96295 | 13.67571 | 30943 ft | 515 kts | 17° |
| 2026-05-04 15:01 | 54.02949 | 13.72124 | 30946 ft | 515 kts | 16° |
| 2026-05-04 15:02 | 54.09593 | 13.76686 | 30939 ft | 514 kts | 16° |
| 2026-05-04 15:02 | 54.16227 | 13.81257 | 30942 ft | 514 kts | 17° |
| 2026-05-04 15:03 | 54.22861 | 13.85842 | 30972 ft | 514 kts | 17° |
| 2026-05-04 15:03 | 54.29471 | 13.90427 | 30946 ft | 515 kts | 17° |
| 2026-05-04 15:04 | 54.36122 | 13.95057 | 30943 ft | 515 kts | 17° |
| 2026-05-04 15:04 | 54.42768 | 13.99701 | 30943 ft | 515 kts | 17° |
| 2026-05-04 15:05 | 54.49366 | 14.04327 | 30951 ft | 515 kts | 17° |
| 2026-05-04 15:05 | 54.56007 | 14.09000 | 30940 ft | 515 kts | 17° |
| 2026-05-04 15:06 | 54.62643 | 14.13683 | 30926 ft | 514 kts | 17° |
| 2026-05-04 15:07 | 54.72581 | 14.20732 | 30950 ft | 516 kts | 17° |
| 2026-05-04 15:07 | 54.79224 | 14.25464 | 30939 ft | 516 kts | 17° |
| 2026-05-04 15:08 | 54.85867 | 14.30214 | 30933 ft | 516 kts | 17° |
| 2026-05-04 15:08 | 54.92506 | 14.34975 | 30938 ft | 516 kts | 17° |
| 2026-05-04 15:09 | 54.99121 | 14.39709 | 30932 ft | 518 kts | 16° |
| 2026-05-04 15:09 | 55.05807 | 14.44497 | 30937 ft | 520 kts | 16° |
| 2026-05-04 15:10 | 55.15871 | 14.51747 | 30932 ft | 522 kts | 17° |
| 2026-05-04 15:11 | 55.25952 | 14.59056 | 30923 ft | 522 kts | 17° |
| 2026-05-04 15:11 | 55.32661 | 14.63942 | 30917 ft | 521 kts | 17° |
| 2026-05-04 15:12 | 55.39355 | 14.68835 | 30911 ft | 520 kts | 17° |
| 2026-05-04 15:12 | 55.44915 | 14.72912 | 30926 ft | 521 kts | 16° |
| 2026-05-04 15:13 | 55.52727 | 14.78658 | 30895 ft | 523 kts | 16° |
| 2026-05-04 15:13 | 55.58304 | 14.82777 | 30893 ft | 523 kts | 16° |
| 2026-05-04 15:14 | 55.65022 | 14.87758 | 30883 ft | 523 kts | 16° |
| 2026-05-04 15:14 | 55.71725 | 14.92744 | 30881 ft | 522 kts | 17° |
| 2026-05-04 15:15 | 55.78398 | 14.97731 | 30874 ft | 519 kts | 17° |
| 2026-05-04 15:15 | 55.85043 | 15.02713 | 30871 ft | 517 kts | 17° |
| 2026-05-04 15:16 | 55.94978 | 15.10191 | 30878 ft | 516 kts | 17° |
| 2026-05-04 15:17 | 56.04828 | 15.17651 | 30848 ft | 513 kts | 17° |
| 2026-05-04 15:17 | 56.14669 | 15.25145 | 30850 ft | 512 kts | 17° |